Time;durP1;ratioP1;P1;durP2;ratioP2;P2;SDS_P1;SDS_P2;PMS_P1;PMS_P2;Temp;Humidity;BMP_temperature;BMP_pressure;BME280_temperature;BME280_humidity;BME280_pressure;Samples;Min_cycle;Max_cycle;Signal;HPM_P1;HPM_P2
2021/06/30 00:00:13;;;;;;;6.22;4.07;;;22.10;72.50;;;;;;5053787;28;20495;-64
2021/06/30 00:02:39;;;;;;;4.80;3.88;;;22.00;72.40;;;;;;5053936;28;20404;-65
2021/06/30 00:05:06;;;;;;;6.15;3.67;;;22.00;72.50;;;;;;5052317;28;20029;-65
2021/06/30 00:07:33;;;;;;;4.85;4.03;;;22.00;72.50;;;;;;5053463;28;20029;-65
2021/06/30 00:09:59;;;;;;;5.60;3.95;;;22.00;72.50;;;;;;5052853;28;20456;-65
2021/06/30 00:12:25;;;;;;;5.15;4.32;;;22.00;72.50;;;;;;5052928;28;20116;-65
2021/06/30 00:14:52;;;;;;;4.68;3.88;;;22.00;72.50;;;;;;5053089;28;20036;-65
2021/06/30 00:17:19;;;;;;;7.13;4.50;;;22.00;72.70;;;;;;5033229;28;20116;-65
2021/06/30 00:19:45;;;;;;;5.65;4.22;;;21.90;72.80;;;;;;5033707;28;20021;-64
2021/06/30 00:22:11;;;;;;;4.65;4.25;;;21.90;72.80;;;;;;5045814;28;20505;-64
2021/06/30 00:24:37;;;;;;;5.90;4.38;;;21.90;72.90;;;;;;5053744;28;20082;-64
2021/06/30 00:27:03;;;;;;;5.88;4.53;;;21.90;73.10;;;;;;5053522;28;20029;-64
2021/06/30 00:29:29;;;;;;;10.00;4.70;;;21.80;73.20;;;;;;5053446;28;20037;-64
2021/06/30 00:31:55;;;;;;;5.35;4.53;;;21.80;73.30;;;;;;5051268;28;20026;-64
2021/06/30 00:34:20;;;;;;;6.05;4.60;;;21.80;73.30;;;;;;5053441;28;20025;-64
2021/06/30 00:36:47;;;;;;;5.15;4.53;;;21.80;73.40;;;;;;5053282;28;20083;-64
2021/06/30 00:39:15;;;;;;;6.40;4.70;;;21.80;73.40;;;;;;5053346;28;20029;-64
2021/06/30 00:41:42;;;;;;;5.32;4.70;;;21.80;73.40;;;;;;5053376;28;20338;-64
2021/06/30 00:44:08;;;;;;;7.10;4.50;;;21.80;73.40;;;;;;5053448;28;20360;-64
2021/06/30 00:46:34;;;;;;;5.85;4.75;;;21.80;73.40;;;;;;5037323;28;20030;-64
2021/06/30 00:49:01;;;;;;;8.10;4.80;;;21.80;73.30;;;;;;5033436;28;20030;-64
2021/06/30 00:51:27;;;;;;;5.47;4.35;;;21.70;73.20;;;;;;5033259;28;20026;-64
2021/06/30 00:53:54;;;;;;;5.93;4.55;;;21.70;73.30;;;;;;5035504;28;20025;-64
2021/06/30 00:56:24;;;;;;;7.90;4.47;;;21.70;73.30;;;;;;5050808;28;20074;-64
2021/06/30 00:58:54;;;;;;;5.80;4.47;;;21.70;73.40;;;;;;5056483;28;20021;-64
2021/06/30 01:01:20;;;;;;;6.53;4.95;;;21.70;73.30;;;;;;5057153;28;20708;-64
2021/06/30 01:03:50;;;;;;;6.00;4.80;;;21.70;73.30;;;;;;5056576;28;20389;-64
2021/06/30 01:06:17;;;;;;;5.75;4.32;;;21.70;73.10;;;;;;5057106;28;20503;-64
2021/06/30 01:08:43;;;;;;;5.15;4.40;;;21.70;73.00;;;;;;5056701;28;20036;-64
2021/06/30 01:11:10;;;;;;;4.93;4.38;;;21.60;72.90;;;;;;5057014;28;20020;-64
2021/06/30 01:13:36;;;;;;;5.13;4.10;;;21.70;72.80;;;;;;5056506;28;20025;-64
2021/06/30 01:16:03;;;;;;;5.35;4.15;;;21.60;72.60;;;;;;5056698;28;20151;-64
2021/06/30 01:18:31;;;;;;;5.82;4.20;;;21.70;72.40;;;;;;5053221;28;20021;-64
2021/06/30 01:20:58;;;;;;;5.95;3.67;;;21.60;72.30;;;;;;5056806;28;20032;-64
2021/06/30 01:23:24;;;;;;;4.00;3.60;;;21.60;72.20;;;;;;5056324;28;20045;-64
2021/06/30 01:25:51;;;;;;;8.88;3.75;;;21.60;72.00;;;;;;5056422;28;20033;-65
2021/06/30 01:28:18;;;;;;;5.22;4.22;;;21.70;72.00;;;;;;5056445;28;20082;-65
2021/06/30 01:30:47;;;;;;;5.53;4.10;;;21.70;71.90;;;;;;5056400;28;20064;-65
2021/06/30 01:33:13;;;;;;;6.07;3.83;;;21.70;72.00;;;;;;5056300;28;20384;-65
2021/06/30 01:35:38;;;;;;;4.78;3.53;;;21.70;71.70;;;;;;5055954;28;20108;-65
2021/06/30 01:38:04;;;;;;;4.00;3.50;;;21.70;71.40;;;;;;5056091;28;20107;-65
2021/06/30 01:40:31;;;;;;;5.50;3.58;;;21.70;71.00;;;;;;5056321;28;20078;-65
2021/06/30 01:42:58;;;;;;;6.30;4.05;;;21.70;71.00;;;;;;5056254;28;20029;-66
2021/06/30 01:45:25;;;;;;;5.85;3.92;;;21.70;71.00;;;;;;5056498;28;20048;-66
2021/06/30 01:47:52;;;;;;;4.55;3.42;;;21.70;70.80;;;;;;5056206;28;20021;-66
2021/06/30 01:50:18;;;;;;;7.05;4.05;;;21.70;70.60;;;;;;5056169;28;20025;-66
2021/06/30 01:52:45;;;;;;;5.57;3.80;;;21.70;70.50;;;;;;5056039;28;20025;-66
2021/06/30 01:55:12;;;;;;;5.72;4.68;;;21.70;70.50;;;;;;5056017;28;20025;-66
2021/06/30 01:57:43;;;;;;;4.63;4.00;;;21.70;70.60;;;;;;5055815;28;20036;-66
2021/06/30 02:00:10;;;;;;;;;;;21.60;70.60;;;;;;5056293;28;20017;-66
2021/06/30 02:02:37;;;;;;;6.10;4.07;;;21.60;70.50;;;;;;5055932;28;20400;-66
2021/06/30 02:05:09;;;;;;;4.40;4.00;;;21.60;70.80;;;;;;5047851;28;20060;-66
2021/06/30 02:07:36;;;;;;;5.13;3.78;;;21.60;70.70;;;;;;5055516;28;20586;-66
2021/06/30 02:10:07;;;;;;;5.93;3.63;;;21.60;70.50;;;;;;5055938;28;20475;-66
2021/06/30 02:12:33;;;;;;;6.70;3.95;;;21.60;70.40;;;;;;5051759;28;20043;-66
2021/06/30 02:14:59;;;;;;;4.55;3.80;;;21.60;70.20;;;;;;5054026;28;20017;-66
2021/06/30 02:17:25;;;;;;;4.93;3.55;;;21.60;70.20;;;;;;5039300;28;20032;-66
2021/06/30 02:19:50;;;;;;;6.57;3.88;;;21.60;70.00;;;;;;5034494;28;20101;-66
2021/06/30 02:22:17;;;;;;;4.93;3.80;;;21.70;69.90;;;;;;5048009;28;20471;-66
2021/06/30 02:24:43;;;;;;;4.45;4.00;;;21.70;69.70;;;;;;5054520;28;20039;-66
2021/06/30 02:27:10;;;;;;;4.88;3.60;;;21.70;69.80;;;;;;5054173;28;20124;-66
2021/06/30 02:29:35;;;;;;;3.90;3.50;;;21.80;69.30;;;;;;5054008;28;20443;-66
2021/06/30 02:32:01;;;;;;;5.70;3.88;;;21.70;69.00;;;;;;5052374;28;20086;-66
2021/06/30 02:34:27;;;;;;;5.63;3.78;;;21.80;69.10;;;;;;5042776;28;20071;-66
2021/06/30 02:36:52;;;;;;;5.68;4.00;;;21.80;69.10;;;;;;5054632;28;20112;-66
2021/06/30 02:39:18;;;;;;;5.10;4.22;;;21.80;69.10;;;;;;5054399;28;20047;-66
2021/06/30 02:41:44;;;;;;;4.22;3.33;;;21.80;69.10;;;;;;5055301;28;20075;-66
2021/06/30 02:44:10;;;;;;;4.70;3.55;;;21.80;69.10;;;;;;5054994;28;20051;-66
2021/06/30 02:46:35;;;;;;;4.63;3.22;;;21.80;68.80;;;;;;5044907;28;20033;-66
2021/06/30 02:49:01;;;;;;;4.40;3.40;;;21.80;68.60;;;;;;5034824;28;20030;-66
2021/06/30 02:51:27;;;;;;;3.72;3.17;;;21.80;68.50;;;;;;5035299;28;20021;-66
2021/06/30 02:53:52;;;;;;;4.28;3.20;;;21.80;68.40;;;;;;5034752;28;20476;-66
2021/06/30 02:56:21;;;;;;;3.35;3.05;;;21.90;68.70;;;;;;5034878;28;20454;-66
2021/06/30 02:58:48;;;;;;;3.70;3.25;;;21.90;68.60;;;;;;5034919;28;20155;-66
2021/06/30 03:01:13;;;;;;;3.55;3.13;;;21.90;68.70;;;;;;5034687;28;20071;-66
2021/06/30 03:03:39;;;;;;;3.90;3.10;;;22.00;68.60;;;;;;5041692;28;20032;-66
2021/06/30 03:06:05;;;;;;;2.85;2.60;;;22.00;68.70;;;;;;5054175;28;20025;-66
2021/06/30 03:08:31;;;;;;;4.18;3.35;;;22.00;68.70;;;;;;5054513;28;20025;-66
2021/06/30 03:10:56;;;;;;;4.43;3.10;;;22.10;68.80;;;;;;5054469;28;20055;-66
2021/06/30 03:13:22;;;;;;;3.60;3.25;;;22.10;68.60;;;;;;5054515;28;20079;-66
2021/06/30 03:15:48;;;;;;;5.03;3.42;;;22.20;68.40;;;;;;5054378;28;20052;-66
2021/06/30 03:18:14;;;;;;;4.57;3.10;;;22.20;68.40;;;;;;5051416;28;20029;-66
2021/06/30 03:20:40;;;;;;;3.38;3.08;;;22.30;68.30;;;;;;5053637;28;20097;-67
2021/06/30 03:23:05;;;;;;;4.63;3.83;;;22.40;68.40;;;;;;5052840;28;20048;-66
2021/06/30 03:25:31;;;;;;;3.83;3.38;;;22.40;68.40;;;;;;5054283;28;20473;-66
2021/06/30 03:27:57;;;;;;;4.35;3.70;;;22.50;68.40;;;;;;5054247;28;20369;-66
2021/06/30 03:30:23;;;;;;;4.18;3.78;;;22.60;68.70;;;;;;5054198;28;20033;-66
2021/06/30 03:32:48;;;;;;;4.25;3.75;;;22.70;68.70;;;;;;5052830;28;20037;-66
2021/06/30 03:35:14;;;;;;;4.13;3.72;;;22.80;69.10;;;;;;5052979;28;20503;-67
2021/06/30 03:37:40;;;;;;;4.28;3.83;;;23.10;69.00;;;;;;5052410;28;20028;-66
2021/06/30 03:40:06;;;;;;;4.30;3.47;;;23.40;69.40;;;;;;5053404;28;20033;-67
2021/06/30 03:42:32;;;;;;;3.70;3.30;;;23.90;69.40;;;;;;5054005;28;20032;-66
2021/06/30 03:44:59;;;;;;;4.82;3.45;;;24.50;68.60;;;;;;5054162;28;20024;-67
2021/06/30 03:47:24;;;;;;;3.70;3.10;;;25.30;67.50;;;;;;5054022;28;20029;-67
2021/06/30 03:49:50;;;;;;;4.28;3.25;;;26.10;66.00;;;;;;5054154;28;20024;-67
2021/06/30 03:52:16;;;;;;;4.50;3.40;;;27.00;64.50;;;;;;5053662;28;20029;-66
2021/06/30 03:54:42;;;;;;;3.30;3.00;;;28.20;62.70;;;;;;5053696;28;20017;-67
2021/06/30 03:57:07;;;;;;;6.55;3.75;;;29.30;61.10;;;;;;5053653;28;20029;-67
2021/06/30 03:59:33;;;;;;;3.35;2.95;;;30.40;58.60;;;;;;5053648;28;20025;-67
2021/06/30 04:01:59;;;;;;;2.90;2.60;;;31.40;56.50;;;;;;5053699;28;20035;-67
2021/06/30 04:04:25;;;;;;;3.50;3.10;;;32.30;54.60;;;;;;5053396;28;20033;-67
2021/06/30 04:06:51;;;;;;;3.78;3.10;;;33.20;53.00;;;;;;5053766;28;20122;-67
2021/06/30 04:09:17;;;;;;;3.97;2.92;;;34.00;51.30;;;;;;5053731;28;20376;-67
2021/06/30 04:11:43;;;;;;;3.58;3.00;;;34.80;50.00;;;;;;5053513;28;20059;-67
2021/06/30 04:14:09;;;;;;;3.10;2.80;;;35.50;49.00;;;;;;5053605;28;20036;-67
2021/06/30 04:16:36;;;;;;;2.90;2.70;;;36.30;47.80;;;;;;5051046;28;20102;-67
2021/06/30 04:19:02;;;;;;;4.28;3.20;;;36.90;46.40;;;;;;5033290;28;20030;-65
2021/06/30 04:21:27;;;;;;;4.95;2.53;;;37.50;45.40;;;;;;5038489;28;20409;-65
2021/06/30 04:23:53;;;;;;;3.08;2.80;;;38.00;44.80;;;;;;5053328;28;20055;-64
2021/06/30 04:26:20;;;;;;;2.80;2.60;;;38.40;44.00;;;;;;5053420;28;20032;-64
2021/06/30 04:28:47;;;;;;;2.83;2.50;;;38.90;43.20;;;;;;5053592;28;20033;-64
2021/06/30 04:31:13;;;;;;;3.22;2.80;;;39.30;43.00;;;;;;5054731;28;20485;-64
2021/06/30 04:33:39;;;;;;;3.85;2.60;;;39.70;42.30;;;;;;5057248;28;20029;-64
2021/06/30 04:36:04;;;;;;;3.00;2.60;;;40.00;41.70;;;;;;5055688;28;20020;-66
2021/06/30 04:38:30;;;;;;;2.88;2.63;;;40.20;41.50;;;;;;5046986;28;20029;-66
2021/06/30 04:40:56;;;;;;;2.78;2.58;;;40.50;41.10;;;;;;5055730;28;20043;-66
2021/06/30 04:43:21;;;;;;;3.53;2.92;;;40.70;40.90;;;;;;5057440;28;20029;-63
2021/06/30 04:45:47;;;;;;;2.83;2.55;;;40.80;40.40;;;;;;5055688;28;20028;-63
2021/06/30 04:48:14;;;;;;;2.97;2.67;;;40.90;40.30;;;;;;5048978;28;20026;-63
2021/06/30 04:50:40;;;;;;;2.95;2.65;;;41.10;39.90;;;;;;5054433;28;20021;-63
2021/06/30 04:53:06;;;;;;;4.15;2.70;;;41.30;39.70;;;;;;5055977;28;20358;-63
2021/06/30 04:55:32;;;;;;;3.25;2.60;;;41.40;39.50;;;;;;5057240;28;20025;-63
2021/06/30 04:57:57;;;;;;;3.00;2.80;;;41.50;39.40;;;;;;5057187;28;20032;-63
2021/06/30 05:00:23;;;;;;;2.80;2.58;;;41.60;39.30;;;;;;5057179;28;20031;-63
2021/06/30 05:02:49;;;;;;;2.92;2.40;;;41.80;38.90;;;;;;5054425;28;20067;-63
2021/06/30 05:05:15;;;;;;;3.63;2.53;;;41.90;38.60;;;;;;5042668;28;20040;-63
2021/06/30 05:07:41;;;;;;;2.95;2.70;;;42.00;38.40;;;;;;5036525;28;20032;-63
2021/06/30 05:10:07;;;;;;;2.70;2.50;;;42.10;38.50;;;;;;5039074;28;20501;-63
2021/06/30 05:12:33;;;;;;;3.22;2.90;;;42.10;38.10;;;;;;5041974;28;20545;-63
2021/06/30 05:14:58;;;;;;;5.45;2.85;;;42.10;38.10;;;;;;5035755;28;20013;-63
2021/06/30 05:17:24;;;;;;;3.17;2.88;;;42.10;38.10;;;;;;5035130;28;20017;-63
2021/06/30 05:19:50;;;;;;;2.80;2.60;;;42.10;37.90;;;;;;5047349;28;20056;-63
2021/06/30 05:22:15;;;;;;;5.38;4.88;;;42.10;37.50;;;;;;5043617;28;20594;-63
2021/06/30 05:24:41;;;;;;;3.55;3.25;;;42.00;37.50;;;;;;5050889;28;20113;-63
2021/06/30 05:27:07;;;;;;;3.28;2.97;;;41.70;37.30;;;;;;5044072;28;20049;-63
2021/06/30 05:29:33;;;;;;;3.45;3.15;;;41.00;37.70;;;;;;5044072;28;20481;-62
2021/06/30 05:31:58;;;;;;;3.22;2.92;;;40.20;38.60;;;;;;5043633;28;20033;-63
2021/06/30 05:34:24;;;;;;;3.40;3.10;;;39.20;39.30;;;;;;5040997;28;20044;-65
2021/06/30 05:36:52;;;;;;;3.40;3.10;;;38.30;40.30;;;;;;5043035;28;20025;-63
2021/06/30 05:39:18;;;;;;;4.70;3.00;;;37.30;41.40;;;;;;5046053;28;20025;-66
2021/06/30 05:41:45;;;;;;;3.50;3.20;;;36.30;42.50;;;;;;5041465;28;20087;-63
2021/06/30 05:44:12;;;;;;;3.80;3.40;;;35.50;43.50;;;;;;5049769;28;20025;-64
2021/06/30 05:46:39;;;;;;;4.05;3.25;;;34.70;44.10;;;;;;5053970;28;20017;-63
2021/06/30 05:49:05;;;;;;;3.63;3.33;;;34.10;45.10;;;;;;5042716;28;20060;-62
2021/06/30 05:51:31;;;;;;;3.47;3.17;;;33.50;45.80;;;;;;5047676;28;20512;-62
2021/06/30 05:53:57;;;;;;;4.30;3.45;;;33.00;46.70;;;;;;5043740;28;20025;-63
2021/06/30 05:56:22;;;;;;;4.15;3.75;;;32.60;47.60;;;;;;5035877;28;20037;-63
2021/06/30 05:58:48;;;;;;;5.10;3.25;;;32.20;48.10;;;;;;5044729;28;20024;-63
2021/06/30 06:01:14;;;;;;;3.50;3.20;;;31.80;48.60;;;;;;5037518;28;20051;-64
2021/06/30 06:03:39;;;;;;;5.25;3.60;;;31.50;49.00;;;;;;5040655;28;20096;-63
2021/06/30 06:06:05;;;;;;;4.95;3.88;;;31.10;49.60;;;;;;5041742;28;20060;-63
2021/06/30 06:08:31;;;;;;;4.18;3.53;;;30.90;50.10;;;;;;5033853;28;20304;-63
2021/06/30 06:10:59;;;;;;;4.55;4.15;;;30.70;50.80;;;;;;5034715;28;20061;-63
2021/06/30 06:13:24;;;;;;;4.28;3.72;;;30.40;51.20;;;;;;5040517;28;20543;-63
2021/06/30 06:15:50;;;;;;;4.10;3.70;;;30.20;52.00;;;;;;5042755;28;20168;-62
2021/06/30 06:18:15;;;;;;;4.18;3.78;;;30.10;52.40;;;;;;5042691;28;20034;-64
2021/06/30 06:20:41;;;;;;;4.00;3.45;;;29.90;52.60;;;;;;5039797;28;20680;-64
2021/06/30 06:23:08;;;;;;;4.13;3.72;;;29.70;53.00;;;;;;5037267;28;20393;-64
2021/06/30 06:25:34;;;;;;;4.32;3.92;;;29.60;53.30;;;;;;5036497;28;20025;-64
2021/06/30 06:27:59;;;;;;;4.00;3.60;;;29.40;53.40;;;;;;5038592;28;20343;-64
2021/06/30 06:30:29;;;;;;;6.55;3.63;;;29.30;53.60;;;;;;5040111;28;20029;-63
2021/06/30 06:32:55;;;;;;;5.33;3.60;;;29.20;53.90;;;;;;5033778;28;20098;-63
2021/06/30 06:35:21;;;;;;;3.85;3.47;;;29.00;54.10;;;;;;5037733;28;20017;-63
2021/06/30 06:37:47;;;;;;;4.95;3.63;;;28.90;54.30;;;;;;5043227;28;20080;-64
2021/06/30 06:40:13;;;;;;;3.60;3.30;;;28.80;54.80;;;;;;5038140;28;20036;-63
2021/06/30 06:42:39;;;;;;;3.72;3.33;;;28.70;54.90;;;;;;5036128;28;20032;-63
2021/06/30 06:45:07;;;;;;;4.00;3.60;;;28.70;54.80;;;;;;5033675;28;20078;-62
2021/06/30 06:47:32;;;;;;;11.73;3.80;;;28.60;55.10;;;;;;5036519;28;20025;-63
2021/06/30 06:49:58;;;;;;;3.95;3.55;;;28.50;55.00;;;;;;5037992;28;20041;-62
2021/06/30 06:52:24;;;;;;;4.03;3.58;;;28.50;55.00;;;;;;5037128;28;20029;-63
2021/06/30 06:54:49;;;;;;;3.80;3.47;;;28.40;55.60;;;;;;5038040;28;20100;-63
2021/06/30 06:57:15;;;;;;;5.10;3.78;;;28.30;55.00;;;;;;5039218;28;20029;-63
2021/06/30 06:59:41;;;;;;;4.03;3.45;;;28.30;55.60;;;;;;5033964;28;20618;-64
2021/06/30 07:02:07;;;;;;;4.82;3.75;;;28.30;55.80;;;;;;5035939;28;20103;-64
2021/06/30 07:04:32;;;;;;;3.92;3.53;;;28.20;55.80;;;;;;5037587;28;20028;-64
2021/06/30 07:06:58;;;;;;;4.45;3.78;;;28.20;55.80;;;;;;5041700;28;20372;-63
2021/06/30 07:09:24;;;;;;;3.92;3.55;;;28.10;56.00;;;;;;5039486;28;20453;-62
2021/06/30 07:11:50;;;;;;;3.70;3.40;;;28.10;55.70;;;;;;5037876;28;20033;-63
2021/06/30 07:14:16;;;;;;;4.95;3.80;;;28.10;55.70;;;;;;5035726;28;20358;-62
2021/06/30 07:16:41;;;;;;;4.63;3.58;;;28.10;55.60;;;;;;5034902;28;20029;-62
2021/06/30 07:19:07;;;;;;;3.47;3.17;;;28.00;55.40;;;;;;5034576;28;20037;-63
2021/06/30 07:21:33;;;;;;;3.80;3.50;;;28.00;56.00;;;;;;5034645;28;20033;-63
2021/06/30 07:24:00;;;;;;;6.13;3.60;;;28.00;55.80;;;;;;5033015;28;20053;-61
2021/06/30 07:26:26;;;;;;;3.53;3.22;;;27.90;55.30;;;;;;5038916;28;20029;-61
2021/06/30 07:28:53;;;;;;;4.93;3.67;;;27.90;55.40;;;;;;5031724;28;21583;-62
2021/06/30 07:31:19;;;;;;;4.43;3.58;;;27.90;56.10;;;;;;5038612;28;20054;-62
2021/06/30 07:33:46;;;;;;;3.97;3.58;;;27.90;55.60;;;;;;5038463;28;20033;-63
2021/06/30 07:36:14;;;;;;;5.00;3.90;;;27.90;54.90;;;;;;5040936;28;20052;-64
2021/06/30 07:38:40;;;;;;;3.88;3.50;;;27.90;55.30;;;;;;5037555;28;20030;-65
2021/06/30 07:41:06;;;;;;;4.22;3.17;;;27.80;55.40;;;;;;5045613;28;20055;-62
2021/06/30 07:43:32;;;;;;;4.72;3.25;;;27.80;55.30;;;;;;5038605;28;20029;-62
2021/06/30 07:45:57;;;;;;;4.20;3.25;;;27.80;55.40;;;;;;5032549;28;20063;-62
2021/06/30 07:48:25;;;;;;;4.55;3.75;;;27.80;55.60;;;;;;5036322;28;20031;-62
2021/06/30 07:50:51;;;;;;;4.10;3.70;;;27.80;55.90;;;;;;5039381;28;20024;-60
2021/06/30 07:53:16;;;;;;;3.55;3.25;;;27.80;55.70;;;;;;5037323;28;20087;-62
2021/06/30 07:55:42;;;;;;;4.38;3.00;;;27.80;55.60;;;;;;5037890;28;20033;-62
2021/06/30 07:58:08;;;;;;;3.47;3.17;;;27.80;55.70;;;;;;5031567;28;20493;-63
2021/06/30 08:00:34;;;;;;;4.00;3.60;;;27.70;56.10;;;;;;5049910;28;20025;-62
2021/06/30 08:02:59;;;;;;;4.28;3.35;;;27.70;56.30;;;;;;5030832;28;20037;-62
2021/06/30 08:05:25;;;;;;;3.45;3.15;;;27.80;55.70;;;;;;5028091;28;20047;-61
2021/06/30 08:07:51;;;;;;;3.78;3.38;;;27.80;55.70;;;;;;5027095;28;20075;-61
2021/06/30 08:10:16;;;;;;;3.47;3.17;;;27.80;55.60;;;;;;5022330;28;20083;-63
2021/06/30 08:12:42;;;;;;;2.95;2.72;;;27.80;55.60;;;;;;5019152;28;20090;-63
2021/06/30 08:15:09;;;;;;;3.92;3.50;;;27.80;55.80;;;;;;5024247;28;20029;-63
2021/06/30 08:17:35;;;;;;;3.55;3.25;;;27.80;55.70;;;;;;5021018;28;20033;-64
2021/06/30 08:20:01;;;;;;;4.00;3.60;;;27.80;55.70;;;;;;5025437;28;20061;-63
2021/06/30 08:22:28;;;;;;;3.38;3.08;;;27.80;56.00;;;;;;5026272;28;20050;-63
2021/06/30 08:24:54;;;;;;;4.00;3.30;;;27.80;55.60;;;;;;5027891;28;20041;-64
2021/06/30 08:27:20;;;;;;;4.22;3.10;;;27.80;56.10;;;;;;5010117;28;20033;-62
2021/06/30 08:29:46;;;;;;;4.43;2.83;;;27.80;55.30;;;;;;5028125;28;20095;-63
2021/06/30 08:32:12;;;;;;;3.65;3.30;;;27.80;55.10;;;;;;5027709;28;20025;-63
2021/06/30 08:34:38;;;;;;;3.47;3.10;;;27.80;55.10;;;;;;5026320;28;20034;-64
2021/06/30 08:37:08;;;;;;;3.92;3.63;;;27.80;55.10;;;;;;5032224;28;20033;-64
2021/06/30 08:39:34;;;;;;;3.47;3.17;;;27.80;55.20;;;;;;5028997;28;20670;-63
2021/06/30 08:42:01;;;;;;;5.22;3.70;;;27.70;55.20;;;;;;5034161;28;20029;-64
2021/06/30 08:44:26;;;;;;;4.65;3.67;;;27.70;55.50;;;;;;5029618;28;20477;-64
2021/06/30 08:46:56;;;;;;;4.18;3.70;;;27.70;55.60;;;;;;5029980;28;20040;-63
2021/06/30 08:49:26;;;;;;;4.60;3.40;;;27.70;55.40;;;;;;5032063;28;20102;-64
2021/06/30 08:51:53;;;;;;;3.83;3.07;;;27.70;55.70;;;;;;5031013;28;20033;-64
2021/06/30 08:54:20;;;;;;;3.67;3.30;;;27.70;56.00;;;;;;5029649;28;20148;-64
2021/06/30 08:56:47;;;;;;;3.55;3.25;;;27.60;55.60;;;;;;5026416;28;20025;-63
2021/06/30 08:59:13;;;;;;;3.33;3.03;;;27.60;55.90;;;;;;5026296;28;20056;-64
2021/06/30 09:01:39;;;;;;;4.05;3.40;;;27.60;56.30;;;;;;5027454;28;20108;-64
2021/06/30 09:04:07;;;;;;;4.00;3.60;;;27.60;56.20;;;;;;5025636;28;20499;-64
2021/06/30 09:06:33;;;;;;;4.47;3.67;;;27.50;56.00;;;;;;5028351;28;20500;-65
2021/06/30 09:09:00;;;;;;;4.57;3.85;;;27.50;56.30;;;;;;5033781;28;20043;-64
2021/06/30 09:11:27;;;;;;;4.35;3.78;;;27.40;56.20;;;;;;5031694;28;20055;-65
2021/06/30 09:14:08;;;;;;;3.60;3.30;;;27.40;56.10;;;;;;5031098;28;21900;-64
2021/06/30 09:17:10;;;;;;;;;;;27.40;56.00;;;;;;5034599;28;20025;-64
2021/06/30 09:20:05;;;;;;;4.15;3.28;;;27.30;56.10;;;;;;5034592;28;19995;-64
2021/06/30 09:22:54;;;;;;;4.00;3.45;;;27.30;56.20;;;;;;5035003;28;20049;-64
2021/06/30 09:25:26;;;;;;;4.28;3.85;;;27.30;56.40;;;;;;5034928;28;20470;-63
2021/06/30 09:27:52;;;;;;;4.60;3.92;;;27.20;56.20;;;;;;5033844;28;20033;-65
2021/06/30 09:30:18;;;;;;;4.22;3.65;;;27.20;56.50;;;;;;5037488;28;20037;-65
2021/06/30 09:33:04;;;;;;;4.13;3.65;;;27.20;56.60;;;;;;5037180;28;20028;-65
2021/06/30 09:35:33;;;;;;;4.05;3.67;;;27.10;56.70;;;;;;5034078;28;20093;-64
2021/06/30 09:38:19;;;;;;;6.07;4.40;;;27.10;56.90;;;;;;5039552;28;20032;-66
2021/06/30 09:40:45;;;;;;;5.78;3.90;;;27.10;57.20;;;;;;5035942;28;20116;-65
2021/06/30 09:43:27;;;;;;;4.47;3.90;;;27.10;57.20;;;;;;5036639;28;20423;-65
2021/06/30 09:45:56;;;;;;;4.75;4.25;;;27.00;57.90;;;;;;5038455;28;20069;-65
2021/06/30 09:48:30;;;;;;;4.80;3.83;;;27.00;57.30;;;;;;5039191;28;20033;-65
2021/06/30 09:50:56;;;;;;;4.18;3.78;;;27.00;57.60;;;;;;5034473;28;20033;-65
2021/06/30 09:53:38;;;;;;;5.07;4.35;;;27.00;57.50;;;;;;5036231;28;20561;-65
2021/06/30 09:56:32;;;;;;;4.65;4.15;;;27.00;57.50;;;;;;5031363;28;20082;-65
2021/06/30 09:59:18;;;;;;;4.60;4.05;;;27.00;57.50;;;;;;5031562;28;20545;-65
2021/06/30 10:01:52;;;;;;;5.00;3.88;;;27.00;57.80;;;;;;5027519;28;20115;-64
2021/06/30 10:04:23;;;;;;;4.70;4.10;;;27.00;57.70;;;;;;5026190;28;20082;-64
2021/06/30 10:06:48;;;;;;;4.38;3.97;;;27.00;57.80;;;;;;5032949;28;20040;-64
2021/06/30 10:09:14;;;;;;;4.68;3.90;;;27.00;58.30;;;;;;5034089;28;20033;-65
2021/06/30 10:11:40;;;;;;;4.70;4.20;;;27.00;57.70;;;;;;5025224;28;20033;-65
2021/06/30 10:14:06;;;;;;;7.05;4.88;;;27.00;57.90;;;;;;5048758;28;20187;-65
2021/06/30 10:16:31;;;;;;;5.15;4.65;;;27.10;58.00;;;;;;5033181;28;20550;-64
2021/06/30 10:18:59;;;;;;;5.93;5.43;;;27.20;58.10;;;;;;5031397;28;20025;-65
2021/06/30 10:21:31;;;;;;;6.10;4.88;;;27.20;58.00;;;;;;5031184;28;20141;-64
2021/06/30 10:23:57;;;;;;;6.82;6.05;;;27.30;58.20;;;;;;5027254;28;20102;-66
2021/06/30 10:26:24;;;;;;;7.28;5.47;;;27.30;58.00;;;;;;5026493;28;20140;-65
2021/06/30 10:28:53;;;;;;;7.53;5.50;;;27.40;58.10;;;;;;5023023;28;20024;-65
2021/06/30 10:31:20;;;;;;;6.28;5.30;;;27.40;58.10;;;;;;5018097;28;20063;-65
2021/06/30 10:34:00;;;;;;;7.32;5.47;;;27.50;58.30;;;;;;5025477;28;20033;-65
2021/06/30 10:36:55;;;;;;;7.43;5.78;;;27.50;58.30;;;;;;5024148;28;20060;-65
2021/06/30 10:39:42;;;;;;;6.10;5.60;;;27.50;58.00;;;;;;5030767;28;20127;-65
2021/06/30 10:42:17;;;;;;;5.50;4.90;;;27.40;57.70;;;;;;5030760;28;20041;-65
2021/06/30 10:44:48;;;;;;;5.55;4.95;;;27.50;58.30;;;;;;5025924;28;20485;-66
2021/06/30 10:47:38;;;;;;;5.88;5.28;;;27.40;58.00;;;;;;5027632;28;20500;-66
2021/06/30 10:50:37;;;;;;;6.75;5.40;;;27.40;58.00;;;;;;5023727;28;20394;-67
2021/06/30 10:53:02;;;;;;;6.20;5.43;;;27.40;58.20;;;;;;5015833;28;20552;-66
2021/06/30 10:55:35;;;;;;;6.43;4.80;;;27.40;58.10;;;;;;5025537;28;20115;-65
2021/06/30 11:00:48;;;;;;;6.78;4.97;;;27.40;58.40;;;;;;5031710;28;20025;-67
2021/06/30 11:03:21;;;;;;;6.45;5.38;;;27.40;58.40;;;;;;5034798;28;20028;-66
2021/06/30 11:05:47;;;;;;;6.00;5.22;;;27.40;58.70;;;;;;5033162;28;20029;-65
2021/06/30 11:08:45;;;;;;;7.82;5.18;;;27.40;58.50;;;;;;5030805;28;20039;-64
2021/06/30 11:11:51;;;;;;;5.85;5.15;;;27.40;58.50;;;;;;5034365;28;20037;-65
2021/06/30 11:14:20;;;;;;;4.78;4.38;;;27.30;58.70;;;;;;5030694;28;20048;-65
2021/06/30 11:16:46;;;;;;;5.85;4.90;;;27.30;58.50;;;;;;5024545;28;20068;-65
2021/06/30 11:19:15;;;;;;;5.82;4.75;;;27.30;58.30;;;;;;5021662;28;20032;-64
2021/06/30 11:22:08;;;;;;;5.38;4.88;;;27.30;58.60;;;;;;5030341;28;20141;-65
2021/06/30 11:24:43;;;;;;;5.95;4.22;;;27.30;58.40;;;;;;5031817;28;20555;-65
2021/06/30 11:27:32;;;;;;;5.20;4.50;;;27.30;58.40;;;;;;5029397;28;20597;-65
2021/06/30 11:30:00;;;;;;;8.18;4.60;;;27.30;58.50;;;;;;5028925;28;20052;-64
2021/06/30 11:32:35;;;;;;;4.85;4.35;;;27.30;58.40;;;;;;5025534;28;20525;-64
2021/06/30 11:35:05;;;;;;;5.93;4.35;;;27.20;58.40;;;;;;5029092;28;20037;-65
2021/06/30 11:37:31;;;;;;;6.05;4.53;;;27.20;58.50;;;;;;5033266;28;20041;-64
2021/06/30 11:40:06;;;;;;;5.90;4.53;;;27.20;58.50;;;;;;5031374;28;20037;-64
2021/06/30 11:42:37;;;;;;;6.30;4.82;;;27.20;58.60;;;;;;5029582;28;20044;-64
2021/06/30 11:45:26;;;;;;;5.68;4.63;;;27.30;59.00;;;;;;5025211;28;20029;-65
2021/06/30 11:47:54;;;;;;;5.10;4.25;;;27.20;58.80;;;;;;5029712;28;20118;-65
2021/06/30 11:50:29;;;;;;;4.50;4.10;;;27.30;59.00;;;;;;5025785;28;20046;-66
2021/06/30 11:52:57;;;;;;;5.80;4.00;;;27.20;58.80;;;;;;5029133;28;20504;-66
2021/06/30 11:55:23;;;;;;;6.53;4.32;;;27.20;58.70;;;;;;5024725;28;20043;-65
2021/06/30 11:58:00;;;;;;;5.82;4.07;;;27.30;58.90;;;;;;5031453;28;20033;-65
2021/06/30 12:00:28;;;;;;;4.15;3.75;;;27.20;58.70;;;;;;5022619;28;21089;-67
2021/06/30 12:02:56;;;;;;;4.47;3.92;;;27.20;58.70;;;;;;5020122;28;20033;-64
2021/06/30 12:05:25;;;;;;;4.40;4.00;;;27.20;58.30;;;;;;5025416;28;20047;-65
2021/06/30 12:07:56;;;;;;;4.13;3.70;;;27.20;57.80;;;;;;5028742;28;20328;-65
2021/06/30 12:10:24;;;;;;;4.55;3.88;;;27.20;57.50;;;;;;5024984;28;20135;-65
2021/06/30 12:12:50;;;;;;;4.38;3.72;;;27.20;57.40;;;;;;5033854;28;20033;-65
2021/06/30 12:15:17;;;;;;;4.47;3.90;;;27.20;57.70;;;;;;5032758;28;20087;-65
2021/06/30 12:17:51;;;;;;;3.92;3.53;;;27.20;57.50;;;;;;5032405;28;20031;-64
2021/06/30 12:20:20;;;;;;;4.03;3.63;;;27.20;57.40;;;;;;5034080;28;20022;-64
2021/06/30 12:22:46;;;;;;;4.30;3.80;;;27.20;57.30;;;;;;5027626;28;20108;-64
2021/06/30 12:25:24;;;;;;;4.10;3.70;;;27.20;57.10;;;;;;5028250;28;20120;-65
2021/06/30 12:27:55;;;;;;;4.88;3.53;;;27.30;57.10;;;;;;5030684;28;20029;-64
2021/06/30 12:30:29;;;;;;;4.30;3.50;;;27.20;56.90;;;;;;5024412;28;20040;-64
2021/06/30 12:32:57;;;;;;;4.70;3.83;;;27.20;57.00;;;;;;5030912;28;20324;-63
2021/06/30 12:35:24;;;;;;;3.83;3.42;;;27.20;56.60;;;;;;5027049;28;20520;-64
2021/06/30 12:37:56;;;;;;;4.07;3.67;;;27.20;56.50;;;;;;5027073;28;20104;-62
2021/06/30 12:40:22;;;;;;;4.32;3.70;;;27.20;56.60;;;;;;5026796;28;20057;-65
2021/06/30 12:42:56;;;;;;;3.90;3.42;;;27.30;56.50;;;;;;5026130;28;20039;-63
2021/06/30 12:45:39;;;;;;;3.85;3.42;;;27.30;56.30;;;;;;5028690;28;20494;-64
2021/06/30 12:48:09;;;;;;;5.55;3.97;;;27.30;56.30;;;;;;5026712;28;20028;-66
2021/06/30 12:50:45;;;;;;;;;;;27.20;56.20;;;;;;5025178;28;20064;-66
2021/06/30 12:53:12;;;;;;;3.80;3.40;;;27.20;56.40;;;;;;5025535;28;19994;-65
2021/06/30 12:56:02;;;;;;;3.65;3.20;;;27.20;56.50;;;;;;5025374;28;20033;-66